Flight Track Log - Related Links

Times and Time Zones

All times are in EDT time to prevent confusion due to time zone crossing. See the VNR160 flight status page for this flight to view local times or setup timezone preferences in your user account.

Time Position Orientation Groundspeed Altitude Reporting Facility
EDT Latitude Longitude Course Direction KTS MPH feet Rate Location/Type
Mon 06:07:54 PM 43.5719 -116.3600 284° West 166 191 8,200  Level Salt Lake Center
Mon 06:08:56 PM 43.5939 -116.4292 294° West 190 219 10,200 1,951 Climbing Salt Lake Center
Mon 06:09:57 PM 43.6158 -116.4992 293° West 202 232 12,200 2,000 Climbing Salt Lake Center
Mon 06:10:59 PM 43.6406 -116.5811 293° West 208 239 14,300 2,244 Climbing Salt Lake Center
Mon 06:12:00 PM 43.7617 -116.9221 293° West  Level FlightAware Approximate
Mon 06:12:00 PM 43.6631 -116.6531 293° West 212 244 16,800  Level Salt Lake Center
Mon 06:13:02 PM 43.6825 -116.7147 294° West 190 219 18,700 2,000 Climbing Salt Lake Center
Mon 06:14:03 PM 43.7053 -116.7897 293° West 188 216 20,900 1,805 Climbing Salt Lake Center
Mon 06:15:05 PM 43.7244 -116.8531 293° West 186 214 22,400 1,561 Climbing Salt Lake Center
Mon 06:16:06 PM 43.7469 -116.9297 292° West 190 219 24,100 1,512 Climbing Salt Lake Center
Mon 06:17:08 PM 43.7683 -116.9997 293° West 201 231 25,500 1,210 Climbing Salt Lake Center
Mon 06:18:10 PM 43.7886 -117.0661 293° West 196 226 26,600 1,317 Climbing Salt Lake Center
Mon 06:19:11 PM 43.8133 -117.1453 293° West 200 230 28,200 1,317 Climbing Salt Lake Center
Mon 06:20:13 PM 43.8347 -117.2164 293° West 206 237 29,300 1,073 Climbing Salt Lake Center
Mon 06:21:14 PM 43.8594 -117.3003 292° West 209 241 30,400 1,024 Climbing Salt Lake Center
Mon 06:22:16 PM 43.8817 -117.3736 293° West 215 247 31,400 774 Climbing Salt Lake Center
Mon 06:23:18 PM 43.9069 -117.4611 292° West 221 254 32,000 293 Climbing Salt Lake Center
Mon 06:24:19 PM 43.9322 -117.5436 293° West 244 281 32,000  Level Salt Lake Center
Mon 06:25:21 PM 43.9589 -117.6319 293° West 258 297 32,000  Level Salt Lake Center
Mon 06:26:22 PM 43.9892 -117.7381 292° West 266 306 32,000  Level Salt Lake Center
Mon 06:27:24 PM 44.0172 -117.8286 293° West 266 306 32,000  Level Salt Lake Center
Mon 06:28:26 PM 44.0486 -117.9372 292° West 272 313 32,000  Level Salt Lake Center
Mon 06:29:27 PM 44.0758 -118.0314 292° West 274 315 32,000  Level Salt Lake Center
Mon 06:30:29 PM 44.1031 -118.1247 292° West 272 313 32,000  Level Salt Lake Center
Mon 06:31:30 PM 44.1350 -118.2328 292° West 271 312 32,000  Level Salt Lake Center
Mon 06:32:32 PM 44.1611 -118.3294 291° West 276 318 32,000  Level Salt Lake Center
Mon 06:33:17 PM 44.1814 -118.3939 294° West 278 320 32,000  Level Seattle Center
Mon 06:34:18 PM 44.2278 -118.5064 300° West 278 320 32,000  Level Seattle Center
Mon 06:35:19 PM 44.2650 -118.5997 299° West 277 319 32,000  Level Seattle Center
Mon 06:36:20 PM 44.3022 -118.6931 299° West 274 315 32,000  Level Seattle Center
Mon 06:37:21 PM 44.3394 -118.7847 300° West 272 313 32,000  Level Seattle Center
Mon 06:38:21 PM 44.3764 -118.8747 300° West 268 308 32,000  Level Seattle Center
Mon 06:39:22 PM 44.4122 -118.9628 300° West 262 302 32,000  Level Seattle Center
Mon 06:40:23 PM 44.4469 -119.0525 298° West 262 302 32,000  Level Seattle Center
Mon 06:41:24 PM 44.4817 -119.1411 299° West 260 299 32,000  Level Seattle Center
Mon 06:42:25 PM 44.5167 -119.2306 299° West 262 302 32,000  Level Seattle Center
Mon 06:43:26 PM 44.5517 -119.3211 298° West 264 304 32,000  Level Seattle Center
Mon 06:44:27 PM 44.5869 -119.4108 299° West 262 302 32,000  Level Seattle Center
Mon 06:45:28 PM 44.6225 -119.5022 299° West 265 305 32,000  Level Seattle Center
Mon 06:46:29 PM 44.6572 -119.5919 299° West 262 302 32,000  Level Seattle Center
Mon 06:47:30 PM 44.6992 -119.7014 298° West 265 305 32,000  Level Seattle Center
Mon 06:48:31 PM 44.7347 -119.7928 299° West 265 305 32,000  Level Seattle Center
Mon 06:49:32 PM 44.7697 -119.8856 298° West 268 308 32,000  Level Seattle Center
Mon 06:50:33 PM 44.8050 -119.9783 298° West 266 306 32,000  Level Seattle Center
Mon 06:51:34 PM 44.8408 -120.0706 299° West 265 305 32,000  Level Seattle Center
Mon 06:52:34 PM 44.8753 -120.1636 298° West 266 306 32,000  Level Seattle Center
Mon 06:53:35 PM 44.9092 -120.2556 298° West 262 302 32,000  Level Seattle Center
Mon 06:54:36 PM 44.9431 -120.3444 298° West 257 296 32,000  Level Seattle Center
Mon 06:55:37 PM 44.9781 -120.4358 298° West 263 303 32,000  Level Seattle Center
Mon 06:56:38 PM 45.0114 -120.5275 297° West 261 300 32,000  Level Seattle Center
Mon 06:57:39 PM 45.0461 -120.6197 298° West 265 305 32,000  Level Seattle Center
Mon 06:58:40 PM 45.0808 -120.7097 299° West 262 302 32,000  Level Seattle Center
Mon 06:59:41 PM 45.1142 -120.8022 297° West 263 303 32,000 -148 Level Seattle Center
Mon 07:00:42 PM 45.1475 -120.8944 297° West 264 304 31,700 -984 Descending Seattle Center
Mon 07:01:43 PM 45.1844 -120.9933 298° West 280 322 30,000 -1,721 Descending Seattle Center
Mon 07:02:44 PM 45.2233 -121.0983 298° West 297 342 28,200 -1,785 Descending Seattle Center
Mon 07:03:44 PM 45.2614 -121.2006 298° West 293 337 26,400 -1,785 Descending Seattle Center
Mon 07:04:45 PM 45.2983 -121.3003 298° West 285 328 24,600 -1,770 Descending Seattle Center
Mon 07:05:46 PM 45.3317 -121.3972 296° West 274 315 22,800 -1,820 Descending Seattle Center
Mon 07:06:47 PM 45.3731 -121.5122 297° West 271 312 20,900 -1,814 Descending Seattle Center
Mon 07:07:12 PM 45.3864 -121.5519 296° West 266 306 20,200 -1,574 Descending Seattle Center
Mon 07:07:48 PM 45.4061 -121.6042 298° West 262 302 19,300 -1,612 Descending Seattle Center
Mon 07:08:19 PM 45.4231 -121.6533 296° West 260 299 18,400 -1,574 Descending Seattle Center
Mon 07:08:49 PM 45.4344 -121.6978 290° West 257 296 17,700 -1,418 Descending Seattle Center
Mon 07:09:14 PM 45.4461 -121.7425 290° West 260 299 17,100 -1,377 Descending Seattle Center
Mon 07:09:50 PM 45.4631 -121.7933 295° West 260 299 16,300 -1,600 Descending Seattle Center
Mon 07:10:14 PM 45.4750 -121.8383 291° West 266 306 15,500 -1,574 Descending Seattle Center
Mon 07:10:51 PM 45.4917 -121.8906 294° West 265 305 14,700 -1,527 Descending Seattle Center
Mon 07:11:09 PM 45.5014 -121.9231 293° West 238 274 14,100 -1,672 Descending Seattle Center
Mon 07:11:52 PM 45.5153 -121.9694 293° West 214 246 13,000 -1,574 Descending Seattle Center
Mon 07:12:10 PM 45.5233 -121.9972 292° West 206 237 12,500 -1,574 Descending Seattle Center
Mon 07:12:53 PM 45.5297 -122.0472 280° West 211 243 11,400 -1,574 Descending Seattle Center
Mon 07:13:11 PM 45.5200 -122.0758 244° Southwest 217 250 10,900 -1,600 Descending Seattle Center
Mon 07:13:53 PM 45.5114 -122.1253 256° West 205 236 9,800 -1,667 Descending Seattle Center
Mon 07:14:23 PM 45.5103 -122.1756 268° West 205 236 8,900 -1,574 Descending Seattle Center
Mon 07:14:54 PM 45.5100 -122.2106 269° West 211 243 8,200 -1,500 Descending Seattle Center
Mon 07:15:55 PM 45.5047 -122.2981 265° West 221 254 6,600 -1,747 Descending Seattle Center
Mon 07:16:13 PM 45.4994 -122.3344 258° West 224 258 5,900 -1,574 Descending Seattle Center
Mon 07:16:56 PM 45.4978 -122.3872 267° West 225 259 5,000 -833 Descending Seattle Center
Mon 07:17:25 PM 45.4925 -122.4389 262° West 219 252 4,900 -393 Descending Seattle Center
Mon 07:17:57 PM 45.4922 -122.4719 269° West 220 253 4,600 -1,200 Descending Seattle Center
Mon 07:18:20 PM 45.4858 -122.5125 257° West 207 238 3,800 -1,574 Descending Seattle Center
Mon 07:18:58 PM 45.4858 -122.5531 270° West 211 243 3,000 -806 Descending Seattle Center
Mon 07:19:27 PM 45.4806 -122.6042 262° West 210 242 2,900 -98 Descending Seattle Center
Mon 07:19:59 PM 45.4803 -122.6358 269° West 211 243 2,900 111 Level Seattle Center
Mon 07:20:21 PM 45.4756 -122.6769 261° West 206 237 3,000  Climbing Seattle Center
Mon 07:21:00 PM 45.4731 -122.7322 266° West 206 237 2,900  Descending Seattle Center
Mon 07:21:22 PM 45.4706 -122.7592 262° West 203 234 3,000 -295 Climbing Seattle Center
Mon 07:22:01 PM 45.4672 -122.8122 265° West 204 235 2,600 -537 Descending Seattle Center
Mon 07:22:29 PM 45.4619 -122.8456 257° West 189 217 2,400 -787 Descending Seattle Center
Mon 07:23:02 PM 45.4711 -122.8764 293° West 188 216 1,800 -900 Descending Seattle Center
Mon 07:23:29 PM 45.4817 -122.8900 318° Northwest 168 193 1,500 -787 Descending Seattle Center
Mon 07:24:03 PM 45.5033 -122.9114 325° Northwest 163 188 1,000 -716 Descending Seattle Center
Mon 07:24:36 PM 45.5142 -122.9231 323° Northwest 146 168 700 -689 Descending Seattle Center
Mon 07:25:04 PM 45.5306 -122.9406 323° Northwest 148 170 300 -857 Descending Seattle Center

Login

Don't have an account? Register now (free) for customized features, flight alerts, and more!